createdAt,value
2022-11-28T00:01:35.303Z,72.16
2022-11-28T00:04:01.630Z,70.61
2022-11-28T00:06:28.245Z,71.69
2022-11-28T00:08:54.862Z,71.01
2022-11-28T00:11:21.189Z,71.16
2022-11-28T00:13:47.486Z,71.19
2022-11-28T00:16:13.849Z,70.44
2022-11-28T00:18:40.214Z,71.61
2022-11-28T00:21:06.515Z,71.08
2022-11-28T00:23:32.821Z,71.70
2022-11-28T00:25:59.227Z,70.82
2022-11-28T00:28:25.524Z,70.57
2022-11-28T00:30:51.827Z,70.27
2022-11-28T00:33:18.214Z,70.51
2022-11-28T00:35:44.533Z,69.85
2022-11-28T00:38:10.842Z,69.02
2022-11-28T00:40:37.159Z,69.42
2022-11-28T00:43:03.464Z,69.23
2022-11-28T00:45:29.846Z,68.71
2022-11-28T00:47:56.190Z,69.77
2022-11-28T00:50:22.487Z,68.56
2022-11-28T00:52:48.783Z,68.57
2022-11-28T00:55:15.112Z,69.74
2022-11-28T00:57:41.421Z,68.90
2022-11-28T01:00:07.728Z,68.18
2022-11-28T01:02:34.149Z,68.80
2022-11-28T01:05:00.489Z,68.36
2022-11-28T01:07:26.848Z,68.08
2022-11-28T01:09:53.217Z,69.12
2022-11-28T01:12:19.538Z,69.19
2022-11-28T01:14:45.920Z,69.07
2022-11-28T01:17:12.245Z,69.13
2022-11-28T01:19:38.543Z,68.67
2022-11-28T01:22:04.852Z,69.21
2022-11-28T01:24:31.168Z,68.65
2022-11-28T01:26:57.455Z,67.85
2022-11-28T01:29:23.752Z,67.87
2022-11-28T01:31:50.100Z,68.34
2022-11-28T01:34:16.438Z,68.20
2022-11-28T01:36:42.734Z,67.22
2022-11-28T01:39:09.253Z,67.12
2022-11-28T01:41:35.559Z,67.82
2022-11-28T01:44:01.855Z,67.75
2022-11-28T01:46:28.285Z,68.49
2022-11-28T01:48:54.657Z,67.76
2022-11-28T01:51:20.966Z,67.80
2022-11-28T01:53:47.281Z,67.74
2022-11-28T01:56:13.580Z,68.64
2022-11-28T01:58:39.877Z,68.91
2022-11-28T02:01:06.278Z,68.68
2022-11-28T02:03:32.621Z,68.83
2022-11-28T02:05:58.922Z,68.78
2022-11-28T02:08:25.234Z,69.06
2022-11-28T02:10:51.549Z,69.11
2022-11-28T02:13:17.853Z,68.91
2022-11-28T02:15:44.175Z,68.59
2022-11-28T02:18:10.482Z,68.98
2022-11-28T02:20:36.784Z,69.25
2022-11-28T02:23:03.105Z,69.15
2022-11-28T02:25:29.411Z,68.87
2022-11-28T02:27:55.708Z,68.85
2022-11-28T02:30:22.037Z,69.06
2022-11-28T02:32:48.360Z,68.90
2022-11-28T02:35:14.668Z,68.68
2022-11-28T02:37:40.987Z,68.90
2022-11-28T02:40:07.288Z,69.62
2022-11-28T02:42:33.593Z,70.20
2022-11-28T02:45:00.003Z,70.80
2022-11-28T02:47:26.318Z,69.62
2022-11-28T02:49:52.611Z,68.67
2022-11-28T02:52:18.941Z,68.61
2022-11-28T02:54:45.240Z,67.89
2022-11-28T02:57:11.555Z,68.11
2022-11-28T02:59:37.880Z,67.89
2022-11-28T03:02:04.214Z,67.96
2022-11-28T03:04:30.627Z,67.84
2022-11-28T03:06:56.982Z,67.76
2022-11-28T03:09:23.283Z,67.89
2022-11-28T03:11:49.601Z,66.90
2022-11-28T03:14:15.916Z,67.06
2022-11-28T03:16:42.305Z,67.16
2022-11-28T03:19:08.652Z,67.23
2022-11-28T03:21:34.981Z,67.16
2022-11-28T03:24:01.280Z,67.99
2022-11-28T03:26:27.600Z,66.98
2022-11-28T03:28:53.922Z,66.70
2022-11-28T03:31:20.238Z,66.25
2022-11-28T03:33:46.559Z,65.97
2022-11-28T03:36:12.872Z,66.02
2022-11-28T03:38:39.170Z,65.83
2022-11-28T03:41:05.458Z,66.16
2022-11-28T03:43:31.777Z,66.20
2022-11-28T03:45:58.083Z,66.13
2022-11-28T03:48:24.393Z,65.34
2022-11-28T03:50:50.760Z,65.75
2022-11-28T03:53:17.068Z,66.34
2022-11-28T03:55:43.516Z,66.29
2022-11-28T03:58:09.920Z,66.10
2022-11-28T04:00:36.207Z,66.23
2022-11-28T04:03:02.570Z,65.86
2022-11-28T04:05:28.929Z,65.52
2022-11-28T04:07:55.305Z,65.63
2022-11-28T04:10:21.672Z,66.23
2022-11-28T04:12:47.995Z,66.78
2022-11-28T04:15:14.353Z,65.65
2022-11-28T04:17:40.666Z,66.70
2022-11-28T04:20:06.976Z,66.41
2022-11-28T04:22:33.284Z,67.07
2022-11-28T04:24:59.580Z,66.13
2022-11-28T04:27:25.896Z,66.67
2022-11-28T04:29:52.196Z,65.69
2022-11-28T04:32:18.500Z,65.78
2022-11-28T04:34:45.097Z,65.15
2022-11-28T04:37:11.545Z,64.97
2022-11-28T04:39:37.845Z,65.48
2022-11-28T04:42:04.175Z,64.83
2022-11-28T04:44:30.468Z,65.63
2022-11-28T04:46:56.775Z,64.76
2022-11-28T04:49:23.116Z,64.46
2022-11-28T04:51:49.409Z,64.64
2022-11-28T04:54:15.704Z,64.46
2022-11-28T04:56:42.064Z,64.99
2022-11-28T04:59:08.372Z,65.00
2022-11-28T05:01:34.664Z,64.66
2022-11-28T05:04:00.980Z,64.19
2022-11-28T05:06:27.278Z,63.46
2022-11-28T05:08:53.583Z,63.86
2022-11-28T05:11:19.887Z,63.45
2022-11-28T05:13:46.175Z,63.95
2022-11-28T05:16:12.488Z,64.27
2022-11-28T05:18:38.804Z,63.96
2022-11-28T05:21:05.095Z,64.00
2022-11-28T05:23:31.393Z,64.32
2022-11-28T05:25:57.720Z,64.60
2022-11-28T05:28:24.021Z,64.69
2022-11-28T05:30:50.312Z,63.68
2022-11-28T05:33:16.631Z,64.40
2022-11-28T05:35:42.932Z,64.47
2022-11-28T05:38:13.444Z,63.97
2022-11-28T05:40:40.043Z,64.47
2022-11-28T05:43:06.337Z,64.33
2022-11-28T05:45:32.681Z,64.45
2022-11-28T05:47:59.010Z,63.64
2022-11-28T05:50:25.290Z,63.97
2022-11-28T05:52:51.577Z,64.03
2022-11-28T05:55:17.899Z,64.78
2022-11-28T05:57:44.192Z,63.98
2022-11-28T06:00:10.483Z,63.85
2022-11-28T06:02:36.884Z,64.51
2022-11-28T06:05:16.496Z,63.55
2022-11-28T06:07:49.534Z,64.18
2022-11-28T06:10:17.026Z,64.74
2022-11-28T06:12:43.322Z,64.57
2022-11-28T06:15:09.632Z,64.48
2022-11-28T06:17:35.937Z,64.16
2022-11-28T06:20:02.239Z,64.25
2022-11-28T06:22:28.560Z,63.81
2022-11-28T06:24:54.867Z,63.92
2022-11-28T06:27:21.176Z,63.96
2022-11-28T06:29:47.495Z,63.25
2022-11-28T06:32:16.553Z,63.54
2022-11-28T06:34:46.778Z,63.09
2022-11-28T06:37:13.096Z,63.76
2022-11-28T06:39:39.468Z,63.35
2022-11-28T06:42:05.867Z,63.51
2022-11-28T06:44:32.175Z,63.68
2022-11-28T06:46:58.468Z,63.64
2022-11-28T06:49:24.751Z,63.31
2022-11-28T06:51:51.063Z,63.94
2022-11-28T06:54:17.393Z,63.06
2022-11-28T06:56:43.684Z,62.57
2022-11-28T06:59:10.089Z,63.32
2022-11-28T07:01:36.420Z,63.57
2022-11-28T07:04:02.720Z,63.37
2022-11-28T07:06:29.085Z,63.31
2022-11-28T07:08:55.391Z,62.99
2022-11-28T07:11:21.705Z,63.93
2022-11-28T07:13:48.012Z,63.66
2022-11-28T07:16:14.445Z,63.21
2022-11-28T07:18:40.822Z,63.46
2022-11-28T07:21:07.151Z,63.92
2022-11-28T07:23:33.453Z,63.78
2022-11-28T07:25:59.843Z,65.17
2022-11-28T07:28:26.179Z,64.46
2022-11-28T07:30:52.476Z,63.40
2022-11-28T07:33:18.763Z,64.02
2022-11-28T07:35:45.079Z,63.48
2022-11-28T07:38:11.374Z,64.55
2022-11-28T07:40:37.665Z,65.03
2022-11-28T07:43:03.980Z,66.57
2022-11-28T07:45:47.341Z,68.14
2022-11-28T07:48:16.575Z,69.12
2022-11-28T07:50:42.888Z,68.55
2022-11-28T07:53:09.209Z,67.72
2022-11-28T07:55:35.529Z,67.87
2022-11-28T07:58:01.980Z,68.50
2022-11-28T08:00:28.283Z,69.13
2022-11-28T08:02:54.614Z,70.27
2022-11-28T08:05:20.930Z,70.42
2022-11-28T08:07:47.280Z,69.59
2022-11-28T08:10:13.772Z,70.12
2022-11-28T08:12:40.071Z,70.22
2022-11-28T08:15:06.372Z,70.13
2022-11-28T08:17:32.709Z,70.23
2022-11-28T08:19:59.016Z,70.71
2022-11-28T08:22:25.311Z,71.34
2022-11-28T08:24:51.642Z,72.85
2022-11-28T08:27:17.940Z,72.99
2022-11-28T08:29:46.150Z,73.57
2022-11-28T08:32:15.524Z,73.95
2022-11-28T08:34:41.832Z,74.83
2022-11-28T08:37:08.148Z,74.32
2022-11-28T08:39:34.501Z,74.06
2022-11-28T08:42:00.809Z,73.34
2022-11-28T08:44:27.107Z,74.00
2022-11-28T08:46:53.449Z,74.54
2022-11-28T08:49:19.760Z,74.67
2022-11-28T08:51:46.069Z,74.48
2022-11-28T08:54:12.403Z,75.23
2022-11-28T08:56:38.704Z,75.61
2022-11-28T08:59:05.000Z,75.55
2022-11-28T09:01:31.407Z,75.55
2022-11-28T09:03:57.849Z,75.78
2022-11-28T09:06:24.213Z,75.54
2022-11-28T09:08:50.539Z,77.08
2022-11-28T09:11:16.851Z,76.03
2022-11-28T09:13:43.146Z,76.88
2022-11-28T09:16:09.507Z,76.45
2022-11-28T09:18:35.808Z,76.25
2022-11-28T09:21:02.132Z,76.25
2022-11-28T09:23:28.446Z,75.90
2022-11-28T09:25:54.759Z,75.53
2022-11-28T09:28:21.068Z,75.59
2022-11-28T09:30:47.456Z,75.11
2022-11-28T09:33:13.786Z,75.03
2022-11-28T09:35:40.091Z,74.40
2022-11-28T09:38:06.421Z,74.25
2022-11-28T09:40:34.052Z,73.98
2022-11-28T09:43:00.374Z,74.13
2022-11-28T09:45:26.706Z,74.48
2022-11-28T09:47:53.029Z,74.03
2022-11-28T09:50:19.379Z,74.40
2022-11-28T09:52:45.844Z,74.91
2022-11-28T09:55:12.225Z,75.53
2022-11-28T09:57:38.534Z,74.95
2022-11-28T10:00:04.865Z,75.38
2022-11-28T10:02:34.055Z,75.71
2022-11-28T10:05:00.457Z,75.49
2022-11-28T10:07:26.999Z,75.99
2022-11-28T10:09:53.344Z,75.57
2022-11-28T10:12:19.638Z,75.61
2022-11-28T10:14:45.964Z,76.06
2022-11-28T10:17:12.316Z,75.21
2022-11-28T10:19:53.966Z,75.60
2022-11-28T10:22:21.127Z,74.74
2022-11-28T10:24:47.422Z,75.48
2022-11-28T10:27:13.719Z,75.11
2022-11-28T10:29:40.063Z,75.42
2022-11-28T10:32:06.362Z,74.47
2022-11-28T10:34:32.670Z,74.20
2022-11-28T10:36:58.995Z,74.52
2022-11-28T10:39:25.300Z,74.17
2022-11-28T10:41:51.604Z,73.11
2022-11-28T10:44:21.495Z,73.01
2022-11-28T10:46:48.120Z,72.91
2022-11-28T10:49:14.429Z,73.11
2022-11-28T10:51:40.756Z,72.62
2022-11-28T10:54:07.051Z,71.84
2022-11-28T10:56:33.435Z,72.30
2022-11-28T10:58:59.786Z,72.38
2022-11-28T11:01:26.171Z,73.28
2022-11-28T11:03:52.516Z,72.16
2022-11-28T11:06:18.956Z,73.62
2022-11-28T11:08:45.263Z,73.10
2022-11-28T11:11:11.571Z,73.63
2022-11-28T11:13:37.911Z,72.70
2022-11-28T11:16:04.261Z,71.85
2022-11-28T11:18:30.615Z,72.57
2022-11-28T11:20:56.953Z,72.72
2022-11-28T11:23:23.256Z,72.68
2022-11-28T11:25:49.679Z,72.96
2022-11-28T11:28:16.054Z,73.07
2022-11-28T11:30:42.436Z,73.30
2022-11-28T11:33:08.780Z,72.81
2022-11-28T11:35:35.106Z,72.88
2022-11-28T11:38:01.417Z,73.10
2022-11-28T11:40:27.728Z,73.29
2022-11-28T11:42:54.072Z,73.89
2022-11-28T11:45:20.385Z,73.18
2022-11-28T11:47:46.697Z,74.10
2022-11-28T11:50:13.052Z,74.91
2022-11-28T11:52:39.367Z,74.45
2022-11-28T11:55:05.679Z,75.25
2022-11-28T11:57:33.974Z,75.33
2022-11-28T12:00:00.783Z,74.05
2022-11-28T12:02:27.154Z,74.00
2022-11-28T12:04:55.479Z,74.20
2022-11-28T12:07:22.143Z,73.80
2022-11-28T12:09:48.496Z,73.68
2022-11-28T12:12:14.828Z,74.54
2022-11-28T12:14:41.142Z,70.79
2022-11-28T12:17:25.596Z,70.28
2022-11-28T12:19:53.765Z,69.00
2022-11-28T12:22:20.080Z,67.36
2022-11-28T12:24:46.920Z,67.56
2022-11-28T12:27:13.497Z,66.93
2022-11-28T12:29:39.802Z,65.49
2022-11-28T12:32:06.101Z,66.18
2022-11-28T12:34:32.465Z,65.73
2022-11-28T12:36:58.769Z,66.20
2022-11-28T12:39:25.064Z,65.22
2022-11-28T12:41:51.381Z,66.20
2022-11-28T12:44:17.683Z,64.78
2022-11-28T12:46:44.040Z,65.34
2022-11-28T12:49:10.375Z,65.17
2022-11-28T12:51:36.694Z,64.58
2022-11-28T12:54:02.994Z,65.23
2022-11-28T12:56:29.369Z,64.37
2022-11-28T12:58:55.674Z,63.62
2022-11-28T13:01:22.088Z,63.93
2022-11-28T13:03:48.731Z,64.21
2022-11-28T13:06:15.044Z,63.98
2022-11-28T13:08:47.974Z,64.24
2022-11-28T13:11:14.945Z,63.70
2022-11-28T13:13:41.240Z,63.93
2022-11-28T13:16:07.566Z,65.00
2022-11-28T13:18:33.933Z,64.16
2022-11-28T13:21:00.227Z,64.51
2022-11-28T13:23:26.540Z,64.70
2022-11-28T13:25:52.852Z,64.37
2022-11-28T13:28:19.152Z,64.71
2022-11-28T13:30:45.531Z,64.94
2022-11-28T13:33:11.900Z,64.04
2022-11-28T13:35:38.200Z,64.72
2022-11-28T13:40:50.833Z,64.33
2022-11-28T13:43:17.140Z,64.13
2022-11-28T13:45:43.438Z,64.96
2022-11-28T13:48:09.757Z,64.95
2022-11-28T13:50:36.070Z,64.76
2022-11-28T13:53:02.376Z,65.15
2022-11-28T13:55:28.699Z,65.16
2022-11-28T13:57:55.004Z,65.77
2022-11-28T14:00:21.311Z,65.48
2022-11-28T14:02:47.685Z,65.42
2022-11-28T14:05:14.062Z,65.78
2022-11-28T14:07:40.512Z,66.33
2022-11-28T14:10:06.909Z,66.81
2022-11-28T14:12:33.210Z,66.91
2022-11-28T14:14:59.509Z,67.03
2022-11-28T14:17:25.825Z,66.94
2022-11-28T14:19:52.125Z,66.90
2022-11-28T14:22:18.427Z,67.37
2022-11-28T14:24:44.897Z,67.63
2022-11-28T14:27:11.371Z,67.78
2022-11-28T14:29:37.662Z,68.07
2022-11-28T14:34:50.260Z,67.82
2022-11-28T14:37:16.577Z,68.44
2022-11-28T14:39:42.862Z,67.86
2022-11-28T14:42:09.156Z,68.30
2022-11-28T14:44:35.596Z,68.33
2022-11-28T14:47:01.993Z,68.95
2022-11-28T14:49:28.423Z,68.67
2022-11-28T14:52:15.814Z,68.85
2022-11-28T14:54:41.010Z,68.70
2022-11-28T14:57:07.337Z,68.09
2022-11-28T14:59:33.644Z,68.05
2022-11-28T15:01:59.978Z,68.71
2022-11-28T15:04:26.323Z,68.72
2022-11-28T15:06:52.619Z,68.37
2022-11-28T15:09:18.925Z,68.53
2022-11-28T15:11:45.235Z,68.61
2022-11-28T15:14:11.523Z,69.09
2022-11-28T15:16:37.876Z,69.03
2022-11-28T15:19:04.207Z,69.03
2022-11-28T15:21:30.506Z,69.51
2022-11-28T15:23:56.814Z,69.71
2022-11-28T15:26:23.112Z,70.04
2022-11-28T15:28:49.404Z,70.30
2022-11-28T15:31:15.799Z,70.79
2022-11-28T15:33:42.153Z,70.35
2022-11-28T15:36:08.549Z,70.61
2022-11-28T15:38:34.832Z,70.29
2022-11-28T15:41:01.146Z,70.73
2022-11-28T15:43:27.441Z,70.64
2022-11-28T15:45:53.733Z,70.78
2022-11-28T15:48:20.094Z,71.05
2022-11-28T15:50:46.389Z,71.30
2022-11-28T15:53:12.695Z,70.94
2022-11-28T15:55:39.026Z,71.09
2022-11-28T15:58:05.334Z,70.99
2022-11-28T16:00:31.670Z,72.16
2022-11-28T16:02:58.004Z,71.45
2022-11-28T16:05:24.285Z,71.92
2022-11-28T16:07:50.712Z,72.24
2022-11-28T16:10:17.082Z,72.03
2022-11-28T16:12:43.401Z,72.36
2022-11-28T16:15:09.701Z,72.45
2022-11-28T16:17:36.019Z,72.89
2022-11-28T16:20:02.315Z,72.56
2022-11-28T16:22:28.612Z,72.94
2022-11-28T16:24:54.919Z,72.83
2022-11-28T16:27:21.219Z,72.42
2022-11-28T16:29:47.523Z,72.52
2022-11-28T16:32:13.847Z,73.01
2022-11-28T16:34:40.219Z,73.14
2022-11-28T16:37:06.543Z,73.20
2022-11-28T16:39:36.528Z,73.41
2022-11-28T16:42:03.032Z,73.99
2022-11-28T16:44:29.328Z,73.41
2022-11-28T16:46:55.654Z,73.94
2022-11-28T16:49:21.966Z,74.49
2022-11-28T16:51:48.270Z,74.73
2022-11-28T16:54:14.635Z,74.18
2022-11-28T16:56:40.928Z,75.43
2022-11-28T16:59:07.223Z,75.10
2022-11-28T17:01:33.585Z,74.74
2022-11-28T17:03:59.916Z,75.18
2022-11-28T17:06:26.219Z,74.56
2022-11-28T17:08:52.535Z,74.05
2022-11-28T17:11:18.837Z,74.26
2022-11-28T17:13:45.125Z,74.21
2022-11-28T17:16:11.495Z,74.34
2022-11-28T17:18:37.845Z,75.18
2022-11-28T17:21:04.145Z,75.42
2022-11-28T17:23:30.463Z,74.80
2022-11-28T17:25:56.758Z,75.45
2022-11-28T17:28:27.785Z,75.55
2022-11-28T17:30:55.356Z,75.27
2022-11-28T17:33:21.651Z,74.60
2022-11-28T17:35:48.039Z,75.35
2022-11-28T17:38:14.378Z,74.74
2022-11-28T17:40:40.676Z,74.83
2022-11-28T17:43:07.027Z,75.54
2022-11-28T17:45:33.420Z,76.29
2022-11-28T17:47:59.733Z,75.99
2022-11-28T17:50:26.017Z,76.90
2022-11-28T17:52:52.319Z,76.74
2022-11-28T17:55:18.606Z,76.33
2022-11-28T17:57:44.901Z,75.58
2022-11-28T18:00:11.382Z,75.84
2022-11-28T18:02:37.720Z,75.57
2022-11-28T18:05:04.064Z,75.88
2022-11-28T18:07:30.398Z,75.05
2022-11-28T18:09:56.699Z,75.44
2022-11-28T18:12:22.997Z,74.89
2022-11-28T18:14:58.193Z,74.49
2022-11-28T18:17:24.500Z,74.86
2022-11-28T18:19:55.931Z,74.40
2022-11-28T18:22:23.707Z,74.28
2022-11-28T18:24:50.080Z,73.37
2022-11-28T18:27:16.490Z,73.79
2022-11-28T18:29:43.161Z,73.84
2022-11-28T18:32:09.735Z,73.81
2022-11-28T18:34:36.051Z,73.81
2022-11-28T18:37:02.350Z,73.74
2022-11-28T18:39:28.661Z,73.63
2022-11-28T18:41:54.988Z,73.61
2022-11-28T18:44:21.290Z,73.93
2022-11-28T18:46:47.593Z,73.94
2022-11-28T18:49:13.907Z,74.50
2022-11-28T18:51:40.214Z,74.73
2022-11-28T18:54:06.516Z,76.18
2022-11-28T18:56:32.845Z,75.61
2022-11-28T18:58:59.163Z,75.53
2022-11-28T19:01:25.599Z,75.40
2022-11-28T19:03:51.997Z,74.76
2022-11-28T19:06:18.295Z,74.69
2022-11-28T19:08:44.587Z,75.83
2022-11-28T19:11:10.916Z,76.48
2022-11-28T19:13:37.216Z,76.18
2022-11-28T19:16:03.609Z,76.20
2022-11-28T19:18:30.746Z,75.21
2022-11-28T19:20:57.049Z,74.72
2022-11-28T19:23:23.344Z,75.74
2022-11-28T19:25:49.659Z,75.22
2022-11-28T19:28:15.943Z,75.32
2022-11-28T19:30:42.246Z,75.06
2022-11-28T19:33:08.567Z,73.90
2022-11-28T19:35:34.864Z,73.45
2022-11-28T19:38:01.165Z,73.60
2022-11-28T19:40:27.507Z,73.63
2022-11-28T19:42:53.806Z,74.14
2022-11-28T19:45:20.109Z,74.18
2022-11-28T19:47:46.430Z,73.79
2022-11-28T19:50:12.736Z,73.74
2022-11-28T19:52:39.037Z,73.31
2022-11-28T19:55:05.355Z,73.62
2022-11-28T19:57:31.657Z,73.90
2022-11-28T19:59:57.953Z,73.93
2022-11-28T20:02:24.316Z,73.61
2022-11-28T20:04:50.639Z,73.80
2022-11-28T20:07:16.976Z,73.48
2022-11-28T20:09:43.734Z,73.49
2022-11-28T20:12:10.157Z,73.57
2022-11-28T20:14:36.509Z,73.68
2022-11-28T20:17:02.911Z,74.47
2022-11-28T20:19:29.216Z,74.68
2022-11-28T20:21:55.517Z,74.22
2022-11-28T20:24:21.835Z,74.15
2022-11-28T20:26:48.135Z,74.14
2022-11-28T20:29:14.441Z,74.64
2022-11-28T20:31:40.810Z,74.44
2022-11-28T20:34:07.146Z,73.93
2022-11-28T20:36:33.456Z,74.47
2022-11-28T20:38:59.795Z,73.59
2022-11-28T20:41:26.130Z,73.38
2022-11-28T20:43:52.429Z,73.64
2022-11-28T20:46:18.743Z,73.21
2022-11-28T20:48:45.043Z,73.96
2022-11-28T20:51:11.325Z,73.36
2022-11-28T20:53:37.635Z,72.91
2022-11-28T20:56:03.930Z,73.97
2022-11-28T20:58:30.230Z,73.17
2022-11-28T21:00:56.580Z,73.04
2022-11-28T21:03:22.885Z,72.43
2022-11-28T21:05:49.178Z,71.67
2022-11-28T21:08:15.483Z,71.52
2022-11-28T21:10:41.757Z,70.72
2022-11-28T21:13:08.034Z,71.65
2022-11-28T21:15:34.482Z,70.44
2022-11-28T21:18:00.782Z,70.02
2022-11-28T21:20:27.075Z,69.89
2022-11-28T21:22:53.397Z,70.91
2022-11-28T21:25:19.686Z,70.59
2022-11-28T21:27:45.986Z,70.62
2022-11-28T21:30:12.296Z,70.28
2022-11-28T21:32:38.594Z,70.89
2022-11-28T21:35:04.947Z,71.20
2022-11-28T21:37:31.273Z,72.51
2022-11-28T21:39:57.580Z,72.33
2022-11-28T21:42:23.868Z,71.97
2022-11-28T21:44:50.192Z,71.93
2022-11-28T21:47:16.506Z,70.41
2022-11-28T21:49:43.124Z,69.15
2022-11-28T21:52:09.661Z,68.43
2022-11-28T21:54:35.958Z,68.72
2022-11-28T21:57:02.257Z,68.00
2022-11-28T21:59:28.572Z,68.01
2022-11-28T22:01:55.002Z,67.97
2022-11-28T22:04:21.398Z,69.21
2022-11-28T22:06:47.766Z,69.91
2022-11-28T22:09:14.060Z,70.70
2022-11-28T22:11:40.367Z,71.09
2022-11-28T22:14:06.690Z,71.22
2022-11-28T22:16:33.109Z,71.69
2022-11-28T22:18:59.446Z,71.42
2022-11-28T22:24:12.102Z,71.49
2022-11-28T22:26:38.447Z,70.90
2022-11-28T22:29:04.756Z,72.25
2022-11-28T22:31:31.089Z,72.59
2022-11-28T22:33:57.443Z,72.30
2022-11-28T22:36:23.726Z,72.49
2022-11-28T22:38:50.006Z,72.73
2022-11-28T22:41:16.323Z,72.06
2022-11-28T22:43:42.623Z,72.83
2022-11-28T22:46:08.975Z,73.54
2022-11-28T22:48:35.341Z,73.08
2022-11-28T22:51:01.657Z,73.19
2022-11-28T22:53:27.951Z,72.62
2022-11-28T22:55:54.260Z,72.93
2022-11-28T22:58:20.557Z,73.20
2022-11-28T23:00:46.868Z,73.08
2022-11-28T23:03:13.261Z,73.67
2022-11-28T23:05:39.654Z,73.82
2022-11-28T23:08:05.953Z,73.81
2022-11-28T23:10:32.275Z,73.38
2022-11-28T23:12:58.575Z,73.31
2022-11-28T23:15:24.882Z,73.12
2022-11-28T23:17:51.182Z,72.67
2022-11-28T23:20:17.489Z,73.07
2022-11-28T23:22:43.789Z,73.15
2022-11-28T23:25:11.511Z,73.21
2022-11-28T23:27:37.815Z,72.67
2022-11-28T23:30:04.109Z,72.42
2022-11-28T23:32:30.424Z,72.36
2022-11-28T23:34:56.707Z,72.29
2022-11-28T23:37:22.999Z,71.76
2022-11-28T23:39:49.316Z,73.77
2022-11-28T23:42:15.603Z,73.09
2022-11-28T23:44:42.197Z,71.96
2022-11-28T23:47:08.661Z,72.89
2022-11-28T23:49:34.971Z,72.86
2022-11-28T23:52:01.267Z,71.92
2022-11-28T23:54:27.578Z,71.95
2022-11-28T23:56:53.873Z,72.00
2022-11-28T23:59:20.174Z,72.06
